Time;durP1;ratioP1;P1;durP2;ratioP2;P2;SDS_P1;SDS_P2;PMS_P1;PMS_P2;Temp;Humidity;BMP_temperature;BMP_pressure;BME280_temperature;BME280_humidity;BME280_pressure;Samples;Min_cycle;Max_cycle;Signal;HPM_P1;HPM_P2
2022/04/13 00:02:10;;;;;;;8.18;4.80;;;11.50;65.70;;;;;;5052016;28;20044;-67
2022/04/13 00:04:35;;;;;;;5.40;4.90;;;11.50;65.70;;;;;;5057809;28;20087;-66
2022/04/13 00:07:01;;;;;;;6.88;5.70;;;11.50;65.80;;;;;;5055889;28;20497;-65
2022/04/13 00:09:26;;;;;;;7.65;5.40;;;11.40;65.90;;;;;;5037330;28;20107;-66
2022/04/13 00:11:54;;;;;;;7.40;5.55;;;11.40;65.90;;;;;;5050668;28;20455;-65
2022/04/13 00:14:23;;;;;;;7.60;5.72;;;11.40;66.00;;;;;;5055083;28;20082;-65
2022/04/13 00:16:50;;;;;;;8.98;6.13;;;11.40;66.10;;;;;;5056206;28;20275;-65
2022/04/13 00:19:16;;;;;;;7.32;6.10;;;11.40;66.20;;;;;;5056688;28;20029;-66
2022/04/13 00:21:42;;;;;;;8.30;5.47;;;11.40;66.20;;;;;;5056192;28;20033;-66
2022/04/13 00:24:08;;;;;;;8.15;4.93;;;11.30;66.30;;;;;;5055875;28;20055;-66
2022/04/13 00:26:33;;;;;;;6.57;4.85;;;11.30;66.40;;;;;;5056201;28;20032;-66
2022/04/13 00:28:59;;;;;;;7.55;5.55;;;11.30;66.40;;;;;;5055729;28;20029;-66
2022/04/13 00:31:25;;;;;;;6.93;4.68;;;11.30;66.60;;;;;;5056825;28;20110;-66
2022/04/13 00:33:50;;;;;;;7.78;4.80;;;11.30;66.60;;;;;;5057879;28;20459;-66
2022/04/13 00:36:16;;;;;;;10.02;4.95;;;11.30;66.70;;;;;;5055680;28;20030;-66
2022/04/13 00:38:41;;;;;;;7.82;5.20;;;11.20;66.80;;;;;;5055967;28;20589;-66
2022/04/13 00:41:07;;;;;;;6.88;4.90;;;11.20;66.90;;;;;;5056355;28;20432;-66
2022/04/13 00:43:33;;;;;;;6.63;4.85;;;11.20;67.10;;;;;;5053954;28;20509;-66
2022/04/13 00:45:58;;;;;;;8.35;4.95;;;11.20;67.10;;;;;;5045621;28;20412;-66
2022/04/13 00:48:40;;;;;;;7.30;4.63;;;11.10;67.20;;;;;;5055839;28;20367;-64
2022/04/13 00:51:06;;;;;;;6.72;4.53;;;11.10;68.00;;;;;;5055549;28;20044;-67
2022/04/13 00:53:34;;;;;;;5.78;4.72;;;11.10;67.30;;;;;;5054139;28;20061;-66
2022/04/13 00:56:02;;;;;;;7.43;4.55;;;11.10;67.50;;;;;;5055790;28;20485;-66
2022/04/13 00:58:31;;;;;;;5.97;4.63;;;11.10;68.40;;;;;;5054841;28;20060;-66
2022/04/13 01:00:57;;;;;;;8.90;5.05;;;11.10;67.50;;;;;;5054631;28;20020;-66
2022/04/13 01:03:24;;;;;;;6.13;4.80;;;11.10;67.60;;;;;;5056139;28;20045;-66
2022/04/13 01:05:52;;;;;;;5.85;4.60;;;11.10;67.60;;;;;;5056261;28;20126;-66
2022/04/13 01:08:19;;;;;;;5.38;4.50;;;11.00;67.60;;;;;;5056418;28;20051;-66
2022/04/13 01:10:47;;;;;;;6.18;5.03;;;11.10;67.80;;;;;;5056038;28;20789;-66
2022/04/13 01:13:14;;;;;;;6.13;5.35;;;11.00;68.00;;;;;;5037867;28;20041;-66
2022/04/13 01:15:39;;;;;;;8.25;5.55;;;11.00;68.10;;;;;;5054224;28;20033;-66
2022/04/13 01:18:05;;;;;;;6.28;4.88;;;11.00;68.10;;;;;;5055768;28;20085;-66
2022/04/13 01:20:31;;;;;;;5.97;4.75;;;11.00;68.10;;;;;;5055255;28;20541;-66
2022/04/13 01:22:57;;;;;;;7.22;4.82;;;11.00;68.30;;;;;;5038558;28;20062;-62
2022/04/13 01:25:23;;;;;;;5.55;4.50;;;11.00;68.30;;;;;;5039031;28;20138;-66
2022/04/13 01:27:48;;;;;;;5.97;4.82;;;11.00;68.30;;;;;;5053679;28;20033;-65
2022/04/13 01:30:14;;;;;;;7.72;4.78;;;10.90;68.10;;;;;;5055385;28;20055;-66
2022/04/13 01:32:40;;;;;;;6.38;5.25;;;10.90;68.10;;;;;;5056738;28;20037;-64
2022/04/13 01:35:07;;;;;;;5.90;4.72;;;10.90;68.20;;;;;;5058676;28;20606;-66
2022/04/13 01:37:34;;;;;;;8.40;5.10;;;11.00;68.60;;;;;;5057660;28;20057;-66
2022/04/13 01:40:00;;;;;;;7.72;5.72;;;10.90;68.60;;;;;;5059951;28;20447;-66
2022/04/13 01:42:25;;;;;;;6.68;5.97;;;10.90;68.60;;;;;;5054611;28;20516;-65
2022/04/13 01:44:51;;;;;;;6.25;5.10;;;10.90;68.70;;;;;;5043493;28;20064;-66
2022/04/13 01:47:17;;;;;;;9.88;5.43;;;10.90;68.60;;;;;;5058316;28;20036;-66
2022/04/13 01:49:43;;;;;;;8.57;5.13;;;10.90;68.60;;;;;;5056616;28;20374;-66
2022/04/13 01:52:10;;;;;;;6.60;4.82;;;10.90;68.70;;;;;;5056886;28;20089;-65
2022/04/13 01:54:35;;;;;;;6.13;4.57;;;10.90;69.50;;;;;;5057644;28;20033;-66
2022/04/13 01:57:02;;;;;;;7.28;5.00;;;10.90;68.60;;;;;;5060158;28;20040;-65
2022/04/13 01:59:27;;;;;;;8.38;4.68;;;10.80;68.60;;;;;;5057950;28;20064;-66
2022/04/13 02:01:53;;;;;;;5.88;4.90;;;10.80;68.60;;;;;;5056104;28;20497;-66
2022/04/13 02:04:26;;;;;;;6.25;5.07;;;10.80;68.60;;;;;;5055494;28;20036;-66
2022/04/13 02:06:52;;;;;;;5.63;4.93;;;10.80;69.20;;;;;;5057835;28;20415;-66
2022/04/13 02:09:18;;;;;;;6.90;4.80;;;10.80;68.70;;;;;;5057498;28;20170;-66
2022/04/13 02:11:45;;;;;;;6.07;4.40;;;10.70;68.80;;;;;;5056707;28;20451;-66
2022/04/13 02:14:12;;;;;;;5.90;4.70;;;10.70;68.70;;;;;;5057562;28;20533;-66
2022/04/13 02:16:38;;;;;;;5.88;4.53;;;10.70;68.70;;;;;;5058483;28;20028;-66
2022/04/13 02:19:06;;;;;;;6.72;5.00;;;10.70;69.00;;;;;;5057111;28;20036;-66
2022/04/13 02:21:32;;;;;;;7.60;5.43;;;10.60;70.00;;;;;;5053413;28;20382;-66
2022/04/13 02:23:58;;;;;;;10.10;6.13;;;10.60;69.30;;;;;;5056907;28;20044;-66
2022/04/13 02:26:24;;;;;;;8.18;5.82;;;10.50;69.50;;;;;;5055490;28;20064;-66
2022/04/13 02:28:50;;;;;;;6.35;5.35;;;10.50;69.70;;;;;;5056203;28;20536;-63
2022/04/13 02:31:16;;;;;;;6.72;5.57;;;10.40;69.60;;;;;;5055135;28;20054;-65
2022/04/13 02:33:42;;;;;;;8.25;5.82;;;10.40;69.60;;;;;;5059991;28;20095;-66
2022/04/13 02:36:08;;;;;;;7.70;5.90;;;10.40;69.70;;;;;;5054478;28;20060;-66
2022/04/13 02:38:34;;;;;;;8.00;6.10;;;10.40;69.90;;;;;;5054400;28;20043;-66
2022/04/13 02:41:00;;;;;;;7.35;6.05;;;10.30;69.90;;;;;;5062761;28;20051;-66
2022/04/13 02:43:29;;;;;;;10.32;6.07;;;10.30;69.90;;;;;;5056371;28;20127;-66
2022/04/13 02:45:56;;;;;;;9.35;6.07;;;10.30;69.90;;;;;;5055212;28;20113;-66
2022/04/13 02:48:22;;;;;;;6.05;5.45;;;10.20;69.90;;;;;;5056968;28;20048;-66
2022/04/13 02:50:48;;;;;;;10.55;5.50;;;10.20;70.10;;;;;;5055171;28;20040;-66
2022/04/13 02:53:15;;;;;;;9.25;5.93;;;10.20;70.20;;;;;;5056524;28;20055;-66
2022/04/13 02:55:41;;;;;;;6.88;5.55;;;10.20;70.30;;;;;;5055063;28;20528;-66
2022/04/13 02:58:07;;;;;;;8.65;5.95;;;10.20;70.40;;;;;;5054055;28;20529;-66
2022/04/13 03:00:33;;;;;;;8.13;5.95;;;10.10;70.30;;;;;;5054075;28;20089;-66
2022/04/13 03:02:59;;;;;;;8.90;5.80;;;10.10;70.50;;;;;;5055817;28;20401;-66
2022/04/13 03:05:25;;;;;;;10.35;5.82;;;10.10;70.60;;;;;;5056063;28;20032;-64
2022/04/13 03:07:51;;;;;;;9.90;5.88;;;10.10;70.60;;;;;;5053914;28;20524;-66
2022/04/13 03:10:16;;;;;;;8.50;6.40;;;10.10;70.70;;;;;;5054090;28;20124;-65
2022/04/13 03:12:42;;;;;;;7.88;6.30;;;10.10;70.80;;;;;;5056004;28;20108;-66
2022/04/13 03:15:09;;;;;;;8.15;6.18;;;10.10;70.90;;;;;;5056286;28;20075;-66
2022/04/13 03:17:35;;;;;;;9.10;6.38;;;10.00;70.90;;;;;;5057845;28;20037;-65
2022/04/13 03:20:02;;;;;;;7.70;5.68;;;10.00;70.90;;;;;;5057795;28;20039;-66
2022/04/13 03:22:28;;;;;;;7.35;5.82;;;10.00;71.10;;;;;;5057643;28;20033;-66
2022/04/13 03:24:54;;;;;;;7.43;5.70;;;10.00;71.10;;;;;;5058114;28;20073;-66
2022/04/13 03:27:20;;;;;;;8.68;5.70;;;9.90;71.20;;;;;;5057690;28;20404;-66
2022/04/13 03:29:46;;;;;;;7.30;6.15;;;9.90;71.20;;;;;;5056138;28;20142;-66
2022/04/13 03:32:12;;;;;;;6.80;5.57;;;9.90;71.10;;;;;;5055003;28;20030;-66
2022/04/13 03:34:37;;;;;;;7.90;5.80;;;9.90;71.00;;;;;;5054571;28;20477;-66
2022/04/13 03:37:04;;;;;;;7.22;6.32;;;9.90;70.90;;;;;;5057430;28;20036;-65
2022/04/13 03:39:30;;;;;;;7.53;6.10;;;9.90;70.90;;;;;;5055423;28;20164;-66
2022/04/13 03:41:55;;;;;;;10.32;6.68;;;9.90;70.90;;;;;;5055836;28;20033;-63
2022/04/13 03:44:22;;;;;;;8.52;6.68;;;9.90;70.80;;;;;;5055733;28;20273;-64
2022/04/13 03:46:48;;;;;;;11.00;7.15;;;9.90;70.90;;;;;;5056549;28;20041;-66
2022/04/13 03:49:14;;;;;;;9.25;7.40;;;9.80;70.80;;;;;;5055994;28;20409;-66
2022/04/13 03:51:40;;;;;;;9.80;6.72;;;9.80;70.80;;;;;;5052667;28;20504;-66
2022/04/13 03:54:06;;;;;;;9.45;7.00;;;9.70;70.70;;;;;;5056790;28;20489;-65
2022/04/13 03:56:33;;;;;;;12.75;7.18;;;9.70;70.80;;;;;;5055658;28;20029;-65
2022/04/13 03:58:59;;;;;;;7.57;6.63;;;9.70;70.90;;;;;;5056095;28;20029;-65
2022/04/13 04:01:25;;;;;;;8.50;6.32;;;9.70;70.90;;;;;;5053347;28;20082;-66
2022/04/13 04:03:51;;;;;;;9.15;6.35;;;9.70;70.70;;;;;;5053497;28;20416;-66
2022/04/13 04:06:17;;;;;;;7.78;6.13;;;9.70;70.50;;;;;;5055447;28;20036;-66
2022/04/13 04:08:43;;;;;;;7.57;6.78;;;9.70;70.40;;;;;;5052567;28;20040;-65
2022/04/13 04:11:09;;;;;;;10.80;6.72;;;9.70;70.50;;;;;;5055772;28;20040;-66
2022/04/13 04:13:35;;;;;;;8.98;6.88;;;9.70;70.50;;;;;;5053012;28;20562;-66
2022/04/13 04:16:01;;;;;;;9.75;6.57;;;9.70;70.60;;;;;;5054772;28;20029;-66
2022/04/13 04:18:27;;;;;;;8.65;6.88;;;9.60;70.70;;;;;;5053114;28;20123;-64
2022/04/13 04:20:52;;;;;;;8.05;6.22;;;9.50;70.60;;;;;;5052838;28;20094;-66
2022/04/13 04:23:18;;;;;;;8.35;6.25;;;9.40;70.60;;;;;;5053420;28;20040;-65
2022/04/13 04:25:44;;;;;;;8.68;6.65;;;9.40;70.50;;;;;;5054283;28;20061;-66
2022/04/13 04:28:10;;;;;;;8.52;6.97;;;9.40;70.40;;;;;;5053814;28;20063;-64
2022/04/13 04:30:37;;;;;;;8.57;6.53;;;9.30;70.40;;;;;;5054718;28;20164;-65
2022/04/13 04:33:04;;;;;;;11.48;7.63;;;9.30;70.40;;;;;;5047150;28;20037;-65
2022/04/13 04:35:29;;;;;;;14.57;7.68;;;9.20;70.40;;;;;;5037670;28;20476;-66
2022/04/13 04:37:55;;;;;;;11.50;7.78;;;9.20;70.60;;;;;;5051656;28;20053;-66
2022/04/13 04:40:21;;;;;;;12.02;7.65;;;9.10;70.60;;;;;;5051292;28;20171;-65
2022/04/13 04:42:47;;;;;;;11.20;7.50;;;9.10;70.70;;;;;;5049658;28;20048;-66
2022/04/13 04:45:16;;;;;;;10.65;7.25;;;9.00;70.80;;;;;;5050599;28;20029;-65
2022/04/13 04:47:42;;;;;;;9.20;7.05;;;9.00;71.90;;;;;;5052628;28;20040;-65
2022/04/13 04:50:09;;;;;;;11.57;6.90;;;8.90;70.70;;;;;;5054760;28;20052;-65
2022/04/13 04:52:40;;;;;;;10.57;7.15;;;8.90;70.70;;;;;;5054425;28;20055;-63
2022/04/13 04:55:07;;;;;;;10.80;7.60;;;8.90;71.00;;;;;;5054067;28;20155;-66
2022/04/13 04:57:33;;;;;;;11.43;6.97;;;8.90;70.90;;;;;;5056727;28;20037;-66
2022/04/13 04:59:59;;;;;;;10.70;6.82;;;8.80;70.80;;;;;;5056181;28;20681;-66
2022/04/13 05:02:25;;;;;;;9.68;7.35;;;8.80;70.90;;;;;;5054956;28;20044;-64
2022/04/13 05:04:51;;;;;;;9.90;7.05;;;8.80;71.00;;;;;;5056058;28;20165;-66
2022/04/13 05:07:16;;;;;;;9.98;7.72;;;8.80;71.00;;;;;;5059359;28;20032;-66
2022/04/13 05:09:42;;;;;;;8.95;6.97;;;8.80;71.80;;;;;;5058372;28;20040;-65
2022/04/13 05:12:08;;;;;;;10.30;7.60;;;8.70;71.30;;;;;;5060471;28;20112;-65
2022/04/13 05:14:34;;;;;;;11.95;7.82;;;8.70;72.30;;;;;;5058870;28;20033;-65
2022/04/13 05:17:00;;;;;;;9.75;7.78;;;8.70;71.30;;;;;;5060744;28;20040;-65
2022/04/13 05:19:25;;;;;;;10.07;7.35;;;8.70;71.40;;;;;;5057798;28;20112;-65
2022/04/13 05:21:51;;;;;;;8.88;7.20;;;8.70;71.40;;;;;;5059630;28;20515;-63
2022/04/13 05:24:16;;;;;;;9.48;7.72;;;8.70;71.40;;;;;;5059516;28;20043;-65
2022/04/13 05:26:42;;;;;;;11.18;7.95;;;8.70;71.60;;;;;;5059584;28;20032;-66
2022/04/13 05:29:08;;;;;;;8.98;7.32;;;8.80;71.80;;;;;;5059617;28;20032;-65
2022/04/13 05:31:34;;;;;;;11.07;7.90;;;8.80;72.00;;;;;;5058697;28;20040;-65
2022/04/13 05:33:59;;;;;;;13.88;8.30;;;8.80;72.10;;;;;;5060153;28;20037;-65
2022/04/13 05:36:25;;;;;;;20.48;9.15;;;8.80;72.20;;;;;;5057007;28;20048;-64
2022/04/13 05:38:51;;;;;;;14.88;8.40;;;8.80;72.40;;;;;;5059254;28;20556;-65
2022/04/13 05:41:16;;;;;;;14.63;9.00;;;8.80;72.60;;;;;;5059434;28;20052;-64
2022/04/13 05:43:42;;;;;;;16.92;9.32;;;8.80;72.80;;;;;;5059100;28;20051;-65
2022/04/13 05:46:08;;;;;;;13.40;8.63;;;8.80;73.00;;;;;;5056980;28;20526;-65
2022/04/13 05:48:33;;;;;;;12.50;7.82;;;8.80;73.20;;;;;;5059979;28;20102;-65
2022/04/13 05:50:59;;;;;;;16.55;8.02;;;8.90;73.30;;;;;;5060557;28;20085;-65
2022/04/13 05:53:26;;;;;;;17.70;8.52;;;8.90;73.30;;;;;;5059905;28;20052;-65
2022/04/13 05:55:55;;;;;;;16.80;8.30;;;8.90;73.50;;;;;;5058928;28;20040;-65
2022/04/13 05:58:23;;;;;;;16.60;8.07;;;9.00;73.60;;;;;;5060999;28;20032;-65
2022/04/13 06:00:49;;;;;;;18.90;8.55;;;9.00;73.70;;;;;;5057648;28;20031;-65
2022/04/13 06:03:14;;;;;;;15.18;8.13;;;9.10;73.50;;;;;;5056846;28;20029;-65
2022/04/13 06:05:40;;;;;;;19.52;8.63;;;9.20;73.70;;;;;;5059169;28;20040;-66
2022/04/13 06:08:06;;;;;;;15.57;8.50;;;9.20;73.90;;;;;;5058170;28;20075;-66
2022/04/13 06:10:32;;;;;;;16.98;8.52;;;9.30;73.70;;;;;;5053112;28;20037;-66
2022/04/13 06:12:58;;;;;;;11.80;8.73;;;9.30;73.80;;;;;;5059222;28;20040;-65
2022/04/13 06:15:23;;;;;;;14.85;8.90;;;9.40;74.10;;;;;;5058660;28;20115;-66
2022/04/13 06:17:49;;;;;;;11.07;8.52;;;9.50;74.00;;;;;;5057180;28;20493;-65
2022/04/13 06:20:14;;;;;;;14.82;9.18;;;9.50;74.00;;;;;;5061002;28;20032;-66
2022/04/13 06:22:42;;;;;;;12.77;9.18;;;9.60;74.10;;;;;;5059506;28;20037;-66
2022/04/13 06:25:09;;;;;;;12.32;8.38;;;9.70;74.20;;;;;;5059342;28;20035;-65
2022/04/13 06:27:35;;;;;;;15.60;8.27;;;9.80;74.00;;;;;;5060338;28;20029;-66
2022/04/13 06:30:00;;;;;;;14.85;8.13;;;9.90;74.00;;;;;;5054618;28;20033;-66
2022/04/13 06:32:37;;;;;;;9.90;7.90;;;9.90;73.90;;;;;;5058285;28;20455;-65
2022/04/13 06:35:05;;;;;;;12.30;7.95;;;10.00;74.40;;;;;;5057225;28;20039;-66
2022/04/13 06:37:31;;;;;;;13.43;8.32;;;10.10;73.90;;;;;;5058777;28;20037;-66
2022/04/13 06:39:56;;;;;;;12.20;8.45;;;10.20;73.20;;;;;;5057524;28;20029;-65
2022/04/13 06:42:22;;;;;;;12.02;7.95;;;10.30;72.40;;;;;;5057894;28;20498;-66
2022/04/13 06:44:50;;;;;;;11.70;7.85;;;10.30;72.10;;;;;;5057618;28;20143;-65
2022/04/13 06:47:16;;;;;;;12.57;9.05;;;10.40;71.60;;;;;;5058047;28;20024;-66
2022/04/13 06:49:41;;;;;;;13.15;9.05;;;10.60;71.10;;;;;;5057306;28;20652;-66
2022/04/13 06:52:07;;;;;;;10.80;8.40;;;10.60;70.50;;;;;;5056295;28;20116;-67
2022/04/13 06:54:33;;;;;;;12.68;8.77;;;10.70;70.30;;;;;;5056824;28;20025;-66
2022/04/13 06:56:58;;;;;;;12.95;8.25;;;10.80;70.40;;;;;;5057701;28;20432;-67
2022/04/13 06:59:24;;;;;;;15.10;8.52;;;10.90;70.10;;;;;;5056196;28;20075;-66
2022/04/13 07:01:49;;;;;;;11.45;7.75;;;11.00;69.70;;;;;;5057142;28;20029;-66
2022/04/13 07:04:15;;;;;;;10.00;7.53;;;11.00;69.30;;;;;;5055978;28;20044;-66
2022/04/13 07:06:41;;;;;;;9.30;7.15;;;11.10;69.00;;;;;;5056124;28;20035;-65
2022/04/13 07:09:06;;;;;;;9.50;6.93;;;11.20;68.80;;;;;;5054800;28;20028;-66
2022/04/13 07:11:32;;;;;;;12.52;7.35;;;11.30;68.60;;;;;;5056520;28;20471;-66
2022/04/13 07:13:57;;;;;;;12.20;7.28;;;11.40;68.10;;;;;;5057663;28;20032;-66
2022/04/13 07:16:23;;;;;;;12.63;6.93;;;11.40;68.80;;;;;;5054889;28;20044;-66
2022/04/13 07:18:49;;;;;;;10.73;7.03;;;11.50;67.80;;;;;;5058370;28;20037;-66
2022/04/13 07:21:14;;;;;;;8.35;6.47;;;11.60;67.50;;;;;;5056080;28;20036;-65
2022/04/13 07:23:40;;;;;;;11.32;6.63;;;11.70;66.80;;;;;;5057254;28;20047;-65
2022/04/13 07:26:05;;;;;;;9.65;6.55;;;11.70;66.30;;;;;;5054590;28;20440;-66
2022/04/13 07:28:31;;;;;;;11.23;6.32;;;11.80;65.50;;;;;;5053505;28;20043;-65
2022/04/13 07:30:57;;;;;;;13.82;6.65;;;11.90;65.70;;;;;;5057100;28;20086;-66
2022/04/13 07:33:22;;;;;;;10.25;6.63;;;11.90;65.50;;;;;;5056273;28;20611;-65
2022/04/13 07:35:48;;;;;;;9.27;6.68;;;12.00;65.50;;;;;;5056362;28;20033;-66
2022/04/13 07:38:13;;;;;;;9.63;6.25;;;12.10;65.40;;;;;;5055558;28;20033;-66
2022/04/13 07:40:39;;;;;;;8.85;6.13;;;12.20;65.00;;;;;;5054430;28;20032;-65
2022/04/13 07:43:06;;;;;;;8.88;5.72;;;12.30;64.70;;;;;;5055277;28;20040;-66
2022/04/13 07:45:32;;;;;;;8.88;5.85;;;12.30;64.30;;;;;;5057857;28;20120;-66
2022/04/13 07:47:57;;;;;;;7.88;5.93;;;12.40;64.20;;;;;;5057279;28;20174;-66
2022/04/13 07:50:23;;;;;;;8.05;5.63;;;12.50;64.20;;;;;;5055850;28;20052;-66
2022/04/13 07:52:49;;;;;;;8.38;5.53;;;12.60;64.50;;;;;;5039653;28;20039;-66
2022/04/13 07:55:15;;;;;;;10.70;6.15;;;12.70;64.40;;;;;;5053618;28;20029;-66
2022/04/13 07:57:40;;;;;;;8.88;5.60;;;12.80;64.40;;;;;;5041842;28;20501;-65
2022/04/13 08:00:09;;;;;;;9.20;6.13;;;12.90;64.30;;;;;;5056372;28;20036;-65
2022/04/13 08:02:36;;;;;;;7.63;5.88;;;13.00;64.10;;;;;;5053033;28;20416;-66
2022/04/13 08:05:02;;;;;;;8.05;5.43;;;13.10;64.30;;;;;;5058533;28;20035;-66
2022/04/13 08:07:27;;;;;;;8.10;5.47;;;13.20;64.30;;;;;;5059019;28;20036;-63
2022/04/13 08:09:53;;;;;;;15.40;6.57;;;13.30;64.30;;;;;;5055447;28;20033;-63
2022/04/13 08:12:18;;;;;;;10.23;5.80;;;13.40;64.30;;;;;;5055218;28;20063;-63
2022/04/13 08:14:46;;;;;;;7.90;6.10;;;13.50;64.40;;;;;;5058556;28;20040;-63
2022/04/13 08:17:13;;;;;;;7.70;5.60;;;13.60;64.40;;;;;;5055582;28;20111;-63
2022/04/13 08:19:38;;;;;;;7.93;5.85;;;13.70;64.50;;;;;;5059158;28;20123;-62
2022/04/13 08:22:04;;;;;;;7.57;5.65;;;13.80;64.40;;;;;;5044015;28;20119;-63
2022/04/13 08:24:30;;;;;;;8.00;5.85;;;13.90;64.50;;;;;;5057344;28;20032;-63
2022/04/13 08:26:58;;;;;;;9.93;5.65;;;14.10;64.50;;;;;;5059959;28;20424;-63
2022/04/13 08:29:25;;;;;;;7.68;6.03;;;14.20;64.40;;;;;;5058257;28;20032;-63
2022/04/13 08:31:50;;;;;;;6.35;5.35;;;14.30;64.40;;;;;;5058014;28;20032;-63
2022/04/13 08:34:16;;;;;;;6.75;5.55;;;14.40;64.20;;;;;;5055184;28;20037;-62
2022/04/13 08:36:42;;;;;;;7.20;5.18;;;14.60;64.00;;;;;;5057523;28;20036;-63
2022/04/13 08:39:14;;;;;;;9.48;5.28;;;14.70;63.60;;;;;;5041896;28;20040;-61
2022/04/13 08:41:56;;;;;;;7.45;5.22;;;14.80;63.40;;;;;;5062013;28;20409;-63
2022/04/13 08:44:28;;;;;;;5.68;4.97;;;15.00;63.00;;;;;;5061454;28;20055;-63
2022/04/13 08:46:57;;;;;;;7.18;5.47;;;15.10;62.90;;;;;;5061069;28;20086;-63
2022/04/13 08:49:23;;;;;;;10.35;5.30;;;15.30;62.70;;;;;;5044790;28;20588;-64
2022/04/13 08:51:52;;;;;;;6.28;5.10;;;15.40;62.70;;;;;;5062442;28;20040;-63
2022/04/13 08:54:25;;;;;;;7.20;5.38;;;15.50;62.60;;;;;;5060117;28;20062;-63
2022/04/13 08:56:55;;;;;;;6.90;5.50;;;15.60;62.60;;;;;;5061644;28;20607;-63
2022/04/13 08:59:46;;;;;;;10.32;6.03;;;15.70;62.40;;;;;;5059654;28;20051;-63
2022/04/13 09:02:25;;;;;;;6.00;5.40;;;15.90;61.20;;;;;;5060986;28;20052;-63
2022/04/13 09:04:56;;;;;;;6.47;5.63;;;16.00;61.20;;;;;;5025634;28;20043;-63
2022/04/13 09:07:25;;;;;;;6.40;5.38;;;16.10;61.20;;;;;;5043601;28;20065;-63
2022/04/13 09:09:52;;;;;;;10.32;6.22;;;16.20;61.20;;;;;;5044206;28;20037;-64
2022/04/13 09:12:19;;;;;;;7.30;5.72;;;16.30;60.90;;;;;;5040369;28;20110;-62
2022/04/13 09:14:45;;;;;;;10.38;5.95;;;16.40;60.60;;;;;;5060148;28;20143;-63
2022/04/13 09:17:12;;;;;;;8.38;5.88;;;16.50;60.30;;;;;;5059963;28;20021;-64
2022/04/13 09:19:38;;;;;;;7.38;6.07;;;16.60;60.20;;;;;;5062253;28;20282;-64
2022/04/13 09:22:05;;;;;;;6.22;5.63;;;16.70;60.00;;;;;;5061455;28;20045;-64
2022/04/13 09:24:32;;;;;;;7.95;6.30;;;16.80;59.90;;;;;;5042001;28;20049;-64
2022/04/13 09:27:01;;;;;;;6.20;5.50;;;16.90;59.50;;;;;;5060092;28;20021;-63
2022/04/13 09:29:26;;;;;;;8.00;5.43;;;17.00;59.30;;;;;;5061198;28;20040;-63
2022/04/13 09:31:52;;;;;;;7.22;5.28;;;17.10;59.50;;;;;;5060443;28;20702;-63
2022/04/13 09:34:18;;;;;;;7.28;6.13;;;17.20;59.30;;;;;;5060449;28;20124;-64
2022/04/13 09:36:44;;;;;;;7.90;6.05;;;17.30;58.90;;;;;;5058720;28;20067;-63
2022/04/13 09:39:10;;;;;;;8.32;5.70;;;17.40;58.90;;;;;;5060043;28;20127;-64
2022/04/13 09:41:38;;;;;;;7.80;5.82;;;17.50;58.90;;;;;;5061568;28;20574;-64
2022/04/13 09:44:15;;;;;;;8.75;6.50;;;17.60;58.80;;;;;;5059490;28;20036;-63
2022/04/13 09:46:41;;;;;;;6.72;5.60;;;17.70;57.80;;;;;;5060053;28;20082;-63
2022/04/13 09:49:11;;;;;;;8.13;6.50;;;17.80;58.10;;;;;;5044541;28;20067;-63
2022/04/13 09:51:38;;;;;;;8.68;6.30;;;17.90;58.10;;;;;;5059360;28;20033;-63
2022/04/13 09:54:09;;;;;;;7.93;6.43;;;17.90;57.40;;;;;;5059988;28;20531;-64
2022/04/13 09:56:42;;;;;;;10.98;5.78;;;18.00;57.40;;;;;;5061068;28;20040;-63
2022/04/13 09:59:09;;;;;;;8.75;5.75;;;18.10;57.60;;;;;;5061505;28;20044;-64
2022/04/13 10:01:35;;;;;;;12.20;5.70;;;18.20;57.80;;;;;;5060143;28;20032;-63
2022/04/13 10:04:03;;;;;;;7.15;5.90;;;18.30;57.70;;;;;;5056639;28;20132;-63
2022/04/13 10:06:35;;;;;;;6.90;5.10;;;18.50;57.40;;;;;;5058834;28;20497;-63
2022/04/13 10:09:04;;;;;;;10.90;5.55;;;18.60;57.10;;;;;;5058020;28;20119;-64
2022/04/13 10:11:30;;;;;;;7.25;5.22;;;18.70;56.90;;;;;;5057678;28;20509;-64
2022/04/13 10:13:56;;;;;;;7.35;4.97;;;18.80;56.70;;;;;;5059480;28;20040;-64
2022/04/13 10:16:22;;;;;;;9.90;6.10;;;18.90;56.60;;;;;;5045737;28;20041;-64
2022/04/13 10:18:54;;;;;;;7.43;5.22;;;19.00;56.00;;;;;;5060109;28;20044;-64
2022/04/13 10:21:35;;;;;;;6.97;5.38;;;19.10;55.40;;;;;;5046473;28;20071;-64
2022/04/13 10:24:02;;;;;;;5.25;4.45;;;19.20;54.60;;;;;;5059713;28;20071;-64
2022/04/13 10:26:28;;;;;;;11.27;4.97;;;19.30;55.50;;;;;;5059167;28;20032;-64
2022/04/13 10:28:54;;;;;;;6.85;5.15;;;19.40;55.10;;;;;;5059909;28;20033;-64
2022/04/13 10:31:19;;;;;;;6.35;5.40;;;19.50;54.90;;;;;;5060997;28;20074;-64
2022/04/13 10:33:49;;;;;;;11.30;5.20;;;19.60;54.70;;;;;;5040998;28;20066;-63
2022/04/13 10:36:16;;;;;;;8.40;5.13;;;19.70;54.70;;;;;;5057937;28;20033;-64
2022/04/13 10:38:43;;;;;;;9.35;6.03;;;19.80;54.70;;;;;;5057660;28;20033;-64
2022/04/13 10:41:14;;;;;;;9.40;5.53;;;19.80;54.30;;;;;;5057943;28;20611;-63
2022/04/13 10:43:41;;;;;;;5.97;4.63;;;19.90;54.50;;;;;;5060491;28;20175;-64
2022/04/13 10:46:09;;;;;;;9.27;3.90;;;20.00;54.70;;;;;;5057750;28;20036;-65
2022/04/13 10:48:40;;;;;;;7.75;4.40;;;20.10;54.50;;;;;;5059634;28;20040;-64
2022/04/13 10:51:17;;;;;;;7.22;4.45;;;20.20;53.80;;;;;;5057108;28;20078;-64
2022/04/13 10:53:59;;;;;;;5.55;4.60;;;20.30;53.60;;;;;;5058628;28;20056;-64
2022/04/13 10:56:29;;;;;;;5.88;4.57;;;20.50;53.40;;;;;;5057766;28;20504;-63
2022/04/13 10:59:20;;;;;;;6.22;4.57;;;20.50;53.50;;;;;;5059051;28;20037;-64
2022/04/13 11:01:52;;;;;;;7.25;4.78;;;20.60;53.00;;;;;;5057368;28;20064;-64
2022/04/13 11:04:19;;;;;;;8.15;4.60;;;20.70;53.30;;;;;;5042076;28;20289;-64
2022/04/13 11:06:46;;;;;;;5.05;4.20;;;20.80;53.40;;;;;;5058844;28;20048;-64
2022/04/13 11:09:29;;;;;;;7.13;4.47;;;20.90;53.10;;;;;;5059689;28;20102;-64
2022/04/13 11:11:56;;;;;;;8.30;4.68;;;21.00;53.50;;;;;;5058121;28;20132;-64
2022/04/13 11:14:23;;;;;;;10.43;4.88;;;21.10;53.00;;;;;;5060444;28;20033;-64
2022/04/13 11:17:13;;;;;;;6.53;4.60;;;21.20;52.10;;;;;;5030474;28;20040;-63
2022/04/13 11:19:40;;;;;;;7.32;4.40;;;21.30;51.40;;;;;;5059696;28;20040;-64
2022/04/13 11:22:05;;;;;;;7.70;4.35;;;21.40;51.60;;;;;;5060391;28;20036;-63
2022/04/13 11:24:34;;;;;;;8.73;4.28;;;21.50;51.10;;;;;;5056415;28;20033;-64
2022/04/13 11:27:01;;;;;;;6.25;4.13;;;21.60;50.50;;;;;;5057584;28;20044;-64
2022/04/13 11:29:57;;;;;;;6.60;4.35;;;21.60;50.00;;;;;;5073404;28;20134;-64
2022/04/13 11:32:33;;;;;;;5.90;3.20;;;21.70;49.30;;;;;;5058204;28;20462;-64
2022/04/13 11:34:59;;;;;;;6.35;3.35;;;21.70;49.00;;;;;;5059319;28;20619;-64
2022/04/13 11:37:26;;;;;;;6.22;3.38;;;21.80;49.50;;;;;;5056187;28;20033;-64
2022/04/13 11:39:56;;;;;;;5.43;3.13;;;21.80;49.20;;;;;;5055849;28;20028;-63
2022/04/13 11:42:27;;;;;;;5.40;3.15;;;21.90;48.60;;;;;;5057167;28;20041;-64
2022/04/13 11:45:06;;;;;;;5.05;2.63;;;21.90;47.30;;;;;;5056828;28;20104;-64
2022/04/13 11:47:43;;;;;;;3.83;2.72;;;22.00;45.80;;;;;;5056939;28;20029;-64
2022/04/13 11:50:18;;;;;;;4.80;2.10;;;22.00;47.00;;;;;;5056420;28;20509;-63
2022/04/13 11:52:53;;;;;;;3.40;2.17;;;22.10;47.10;;;;;;5072731;28;20123;-64
2022/04/13 11:55:18;;;;;;;2.60;1.90;;;22.20;46.80;;;;;;5057548;28;20118;-64
2022/04/13 11:58:12;;;;;;;2.95;2.33;;;22.20;46.40;;;;;;5057892;28;20041;-64
2022/04/13 12:00:57;;;;;;;3.85;2.45;;;22.30;43.70;;;;;;5055743;28;20040;-64
2022/04/13 12:03:30;;;;;;;5.72;2.50;;;22.40;45.00;;;;;;5055519;28;20036;-64
2022/04/13 12:06:08;;;;;;;3.50;2.38;;;22.50;45.70;;;;;;5054853;28;20081;-64
2022/04/13 12:08:45;;;;;;;6.70;2.20;;;22.50;44.20;;;;;;5056983;28;20036;-64
2022/04/13 12:11:16;;;;;;;4.35;2.40;;;22.60;43.40;;;;;;5054557;28;20041;-64
2022/04/13 12:13:50;;;;;;;3.60;2.10;;;22.60;43.50;;;;;;5056254;28;20082;-64
2022/04/13 12:16:38;;;;;;;4.85;2.50;;;22.60;43.30;;;;;;5057846;28;20037;-64
2022/04/13 12:19:09;;;;;;;3.80;2.70;;;22.70;42.40;;;;;;5057900;28;20046;-65
2022/04/13 12:21:37;;;;;;;4.57;2.72;;;22.70;43.30;;;;;;5056172;28;20033;-64
2022/04/13 12:24:07;;;;;;;3.72;2.55;;;22.70;43.40;;;;;;5056208;28;20040;-64
2022/04/13 12:26:38;;;;;;;7.43;2.92;;;22.80;43.90;;;;;;5058071;28;20082;-64
2022/04/13 12:29:20;;;;;;;3.08;2.20;;;22.80;43.70;;;;;;5058849;28;20024;-64
2022/04/13 12:31:53;;;;;;;7.57;2.75;;;22.80;42.60;;;;;;5056970;28;20133;-64
2022/04/13 12:34:21;;;;;;;4.70;3.08;;;22.90;43.20;;;;;;5058020;28;20032;-64
2022/04/13 12:36:59;;;;;;;5.78;3.30;;;22.90;43.30;;;;;;5057698;28;20059;-64
2022/04/13 12:39:33;;;;;;;6.57;3.50;;;23.00;41.50;;;;;;5057625;28;20029;-64
2022/04/13 12:42:01;;;;;;;5.77;3.17;;;23.00;40.80;;;;;;5058974;28;20037;-65
2022/04/13 12:44:28;;;;;;;4.50;2.90;;;22.90;42.30;;;;;;5057281;28;20051;-64
2022/04/13 12:47:08;;;;;;;4.78;2.90;;;23.00;42.50;;;;;;5058160;28;20173;-64
2022/04/13 12:49:37;;;;;;;3.42;2.40;;;23.00;40.10;;;;;;5058742;28;20048;-64